You are listening to:
CYYZ Arrival - Toronto, Ontario, Canada

CYYZ 140940Z 17013KT 15SM -SN FEW041 OVC063 M01/M06 A3009 RMK SC2SC6 SLP200

If stream does not start automatically press the play button